sensor_id;sensor_type;location;lat;lon;timestamp;P1;durP1;ratioP1;P2;durP2;ratioP2
20431;SDS011;10375;49.136;10.366;2023-06-26T00:01:59;7.35;;;5.53;;
20431;SDS011;10375;49.136;10.366;2023-06-26T00:04:26;10.50;;;6.38;;
20431;SDS011;10375;49.136;10.366;2023-06-26T00:06:53;7.78;;;6.45;;
20431;SDS011;10375;49.136;10.366;2023-06-26T00:09:20;9.68;;;6.38;;
20431;SDS011;10375;49.136;10.366;2023-06-26T00:11:47;7.38;;;5.80;;
20431;SDS011;10375;49.136;10.366;2023-06-26T00:14:14;9.52;;;5.82;;
20431;SDS011;10375;49.136;10.366;2023-06-26T00:16:41;8.32;;;6.18;;
20431;SDS011;10375;49.136;10.366;2023-06-26T00:19:09;7.82;;;6.43;;
20431;SDS011;10375;49.136;10.366;2023-06-26T00:21:36;9.68;;;6.53;;
20431;SDS011;10375;49.136;10.366;2023-06-26T00:24:03;11.43;;;6.40;;
20431;SDS011;10375;49.136;10.366;2023-06-26T00:26:30;10.07;;;6.97;;
20431;SDS011;10375;49.136;10.366;2023-06-26T00:28:57;9.10;;;6.65;;
20431;SDS011;10375;49.136;10.366;2023-06-26T00:31:24;8.23;;;6.70;;
20431;SDS011;10375;49.136;10.366;2023-06-26T00:33:51;9.25;;;7.07;;
20431;SDS011;10375;49.136;10.366;2023-06-26T00:36:18;11.27;;;6.85;;
20431;SDS011;10375;49.136;10.366;2023-06-26T00:38:45;7.40;;;6.07;;
20431;SDS011;10375;49.136;10.366;2023-06-26T00:41:12;13.00;;;6.80;;
20431;SDS011;10375;49.136;10.366;2023-06-26T00:43:39;8.68;;;6.43;;
20431;SDS011;10375;49.136;10.366;2023-06-26T00:46:10;7.25;;;6.18;;
20431;SDS011;10375;49.136;10.366;2023-06-26T00:48:40;10.45;;;7.47;;
20431;SDS011;10375;49.136;10.366;2023-06-26T00:51:11;8.05;;;5.97;;
20431;SDS011;10375;49.136;10.366;2023-06-26T00:53:39;9.65;;;6.63;;
20431;SDS011;10375;49.136;10.366;2023-06-26T00:56:06;7.85;;;6.63;;
20431;SDS011;10375;49.136;10.366;2023-06-26T00:58:34;7.72;;;5.97;;
20431;SDS011;10375;49.136;10.366;2023-06-26T01:01:01;9.88;;;6.00;;
20431;SDS011;10375;49.136;10.366;2023-06-26T01:03:29;8.43;;;6.50;;
20431;SDS011;10375;49.136;10.366;2023-06-26T01:05:56;12.55;;;6.30;;
20431;SDS011;10375;49.136;10.366;2023-06-26T01:08:25;15.05;;;6.70;;
20431;SDS011;10375;49.136;10.366;2023-06-26T01:10:53;10.23;;;7.15;;
20431;SDS011;10375;49.136;10.366;2023-06-26T01:13:20;9.75;;;6.90;;
20431;SDS011;10375;49.136;10.366;2023-06-26T01:15:47;9.85;;;6.75;;
20431;SDS011;10375;49.136;10.366;2023-06-26T01:18:15;12.07;;;7.13;;
20431;SDS011;10375;49.136;10.366;2023-06-26T01:20:43;7.47;;;6.43;;
20431;SDS011;10375;49.136;10.366;2023-06-26T01:23:15;8.68;;;6.70;;
20431;SDS011;10375;49.136;10.366;2023-06-26T01:25:52;8.60;;;6.70;;
20431;SDS011;10375;49.136;10.366;2023-06-26T01:28:42;10.48;;;7.07;;
20431;SDS011;10375;49.136;10.366;2023-06-26T01:31:10;11.82;;;7.00;;
20431;SDS011;10375;49.136;10.366;2023-06-26T01:33:39;9.98;;;7.32;;
20431;SDS011;10375;49.136;10.366;2023-06-26T01:36:07;8.43;;;6.85;;
20431;SDS011;10375;49.136;10.366;2023-06-26T01:38:34;8.15;;;6.35;;
20431;SDS011;10375;49.136;10.366;2023-06-26T01:41:02;8.45;;;6.90;;
20431;SDS011;10375;49.136;10.366;2023-06-26T01:46:23;11.60;;;7.07;;
20431;SDS011;10375;49.136;10.366;2023-06-26T01:51:30;8.43;;;6.70;;
20431;SDS011;10375;49.136;10.366;2023-06-26T01:54:01;9.90;;;6.78;;
20431;SDS011;10375;49.136;10.366;2023-06-26T01:56:28;7.30;;;6.15;;
20431;SDS011;10375;49.136;10.366;2023-06-26T01:58:56;9.95;;;7.97;;
20431;SDS011;10375;49.136;10.366;2023-06-26T02:01:24;11.00;;;7.03;;
20431;SDS011;10375;49.136;10.366;2023-06-26T02:03:51;8.63;;;7.13;;
20431;SDS011;10375;49.136;10.366;2023-06-26T02:06:19;9.43;;;6.80;;
20431;SDS011;10375;49.136;10.366;2023-06-26T02:08:46;7.32;;;6.35;;
20431;SDS011;10375;49.136;10.366;2023-06-26T02:11:13;9.55;;;7.05;;
20431;SDS011;10375;49.136;10.366;2023-06-26T02:13:40;10.00;;;6.93;;
20431;SDS011;10375;49.136;10.366;2023-06-26T02:16:07;11.68;;;7.25;;
20431;SDS011;10375;49.136;10.366;2023-06-26T02:18:34;9.80;;;7.40;;
20431;SDS011;10375;49.136;10.366;2023-06-26T02:21:03;12.63;;;6.90;;
20431;SDS011;10375;49.136;10.366;2023-06-26T02:23:30;10.25;;;7.55;;
20431;SDS011;10375;49.136;10.366;2023-06-26T02:25:58;13.25;;;6.82;;
20431;SDS011;10375;49.136;10.366;2023-06-26T02:28:25;10.15;;;7.45;;
20431;SDS011;10375;49.136;10.366;2023-06-26T02:30:52;10.05;;;7.35;;
20431;SDS011;10375;49.136;10.366;2023-06-26T02:33:19;14.63;;;7.03;;
20431;SDS011;10375;49.136;10.366;2023-06-26T02:35:46;12.55;;;7.55;;
20431;SDS011;10375;49.136;10.366;2023-06-26T02:38:13;8.98;;;7.38;;
20431;SDS011;10375;49.136;10.366;2023-06-26T02:40:40;12.82;;;8.60;;
20431;SDS011;10375;49.136;10.366;2023-06-26T02:43:07;9.82;;;7.05;;
20431;SDS011;10375;49.136;10.366;2023-06-26T02:45:34;11.57;;;7.05;;
20431;SDS011;10375;49.136;10.366;2023-06-26T02:48:01;7.80;;;6.65;;
20431;SDS011;10375;49.136;10.366;2023-06-26T02:50:29;9.80;;;7.05;;
20431;SDS011;10375;49.136;10.366;2023-06-26T02:52:56;8.75;;;7.07;;
20431;SDS011;10375;49.136;10.366;2023-06-26T02:55:23;9.18;;;7.18;;
20431;SDS011;10375;49.136;10.366;2023-06-26T02:57:50;8.07;;;6.32;;
20431;SDS011;10375;49.136;10.366;2023-06-26T03:00:17;9.38;;;7.00;;
20431;SDS011;10375;49.136;10.366;2023-06-26T03:02:45;8.48;;;7.07;;
20431;SDS011;10375;49.136;10.366;2023-06-26T03:05:12;8.60;;;7.07;;
20431;SDS011;10375;49.136;10.366;2023-06-26T03:07:39;10.23;;;8.05;;
20431;SDS011;10375;49.136;10.366;2023-06-26T03:10:06;11.80;;;7.32;;
20431;SDS011;10375;49.136;10.366;2023-06-26T03:12:34;9.73;;;7.47;;
20431;SDS011;10375;49.136;10.366;2023-06-26T03:15:01;17.30;;;6.63;;
20431;SDS011;10375;49.136;10.366;2023-06-26T03:17:28;8.00;;;6.45;;
20431;SDS011;10375;49.136;10.366;2023-06-26T03:19:55;10.10;;;7.60;;
20431;SDS011;10375;49.136;10.366;2023-06-26T03:22:22;13.60;;;7.25;;
20431;SDS011;10375;49.136;10.366;2023-06-26T03:24:49;11.98;;;7.82;;
20431;SDS011;10375;49.136;10.366;2023-06-26T03:27:16;12.32;;;8.07;;
20431;SDS011;10375;49.136;10.366;2023-06-26T03:29:44;14.88;;;7.82;;
20431;SDS011;10375;49.136;10.366;2023-06-26T03:32:11;16.90;;;7.93;;
20431;SDS011;10375;49.136;10.366;2023-06-26T03:34:38;32.85;;;8.20;;
20431;SDS011;10375;49.136;10.366;2023-06-26T03:37:05;12.30;;;7.38;;
20431;SDS011;10375;49.136;10.366;2023-06-26T03:39:32;11.45;;;7.22;;
20431;SDS011;10375;49.136;10.366;2023-06-26T03:42:00;11.80;;;7.35;;
20431;SDS011;10375;49.136;10.366;2023-06-26T03:44:27;12.68;;;7.55;;
20431;SDS011;10375;49.136;10.366;2023-06-26T03:46:55;10.27;;;7.03;;
20431;SDS011;10375;49.136;10.366;2023-06-26T03:49:22;11.23;;;7.65;;
20431;SDS011;10375;49.136;10.366;2023-06-26T03:51:49;18.48;;;7.68;;
20431;SDS011;10375;49.136;10.366;2023-06-26T03:54:16;9.65;;;7.10;;
20431;SDS011;10375;49.136;10.366;2023-06-26T03:56:43;11.60;;;7.45;;
20431;SDS011;10375;49.136;10.366;2023-06-26T03:59:10;10.27;;;7.30;;
20431;SDS011;10375;49.136;10.366;2023-06-26T04:01:37;8.60;;;7.25;;
20431;SDS011;10375;49.136;10.366;2023-06-26T04:04:05;117.88;;;13.60;;
20431;SDS011;10375;49.136;10.366;2023-06-26T04:06:32;31.48;;;8.18;;
20431;SDS011;10375;49.136;10.366;2023-06-26T04:08:59;35.95;;;10.05;;
20431;SDS011;10375;49.136;10.366;2023-06-26T04:11:26;18.90;;;7.10;;
20431;SDS011;10375;49.136;10.366;2023-06-26T04:13:53;39.50;;;9.57;;
20431;SDS011;10375;49.136;10.366;2023-06-26T04:16:21;31.45;;;9.10;;
20431;SDS011;10375;49.136;10.366;2023-06-26T04:18:51;45.53;;;11.77;;
20431;SDS011;10375;49.136;10.366;2023-06-26T04:21:19;10.27;;;8.38;;
20431;SDS011;10375;49.136;10.366;2023-06-26T04:23:46;20.10;;;8.15;;
20431;SDS011;10375;49.136;10.366;2023-06-26T04:26:14;29.45;;;9.00;;
20431;SDS011;10375;49.136;10.366;2023-06-26T04:28:41;33.78;;;8.88;;
20431;SDS011;10375;49.136;10.366;2023-06-26T04:31:09;14.07;;;8.50;;
20431;SDS011;10375;49.136;10.366;2023-06-26T04:33:36;21.40;;;8.68;;
20431;SDS011;10375;49.136;10.366;2023-06-26T04:36:07;13.70;;;8.13;;
20431;SDS011;10375;49.136;10.366;2023-06-26T04:38:35;11.88;;;8.20;;
20431;SDS011;10375;49.136;10.366;2023-06-26T04:41:02;13.73;;;7.85;;
20431;SDS011;10375;49.136;10.366;2023-06-26T04:43:29;13.68;;;8.38;;
20431;SDS011;10375;49.136;10.366;2023-06-26T04:45:56;12.55;;;8.07;;
20431;SDS011;10375;49.136;10.366;2023-06-26T04:48:23;9.70;;;7.90;;
20431;SDS011;10375;49.136;10.366;2023-06-26T04:50:50;18.02;;;8.05;;
20431;SDS011;10375;49.136;10.366;2023-06-26T04:53:20;15.07;;;7.97;;
20431;SDS011;10375;49.136;10.366;2023-06-26T04:55:49;10.70;;;8.05;;
20431;SDS011;10375;49.136;10.366;2023-06-26T04:58:20;11.10;;;8.68;;
20431;SDS011;10375;49.136;10.366;2023-06-26T05:00:47;14.85;;;8.50;;
20431;SDS011;10375;49.136;10.366;2023-06-26T05:03:16;20.08;;;9.05;;
20431;SDS011;10375;49.136;10.366;2023-06-26T05:05:44;36.08;;;10.57;;
20431;SDS011;10375;49.136;10.366;2023-06-26T05:08:15;21.83;;;9.65;;
20431;SDS011;10375;49.136;10.366;2023-06-26T05:10:50;16.63;;;9.10;;
20431;SDS011;10375;49.136;10.366;2023-06-26T05:13:17;22.15;;;7.55;;
20431;SDS011;10375;49.136;10.366;2023-06-26T05:15:46;12.30;;;7.82;;
20431;SDS011;10375;49.136;10.366;2023-06-26T05:18:13;13.07;;;7.32;;
20431;SDS011;10375;49.136;10.366;2023-06-26T05:20:40;14.25;;;7.75;;
20431;SDS011;10375;49.136;10.366;2023-06-26T05:23:07;19.42;;;8.95;;
20431;SDS011;10375;49.136;10.366;2023-06-26T05:25:37;7.65;;;6.78;;
20431;SDS011;10375;49.136;10.366;2023-06-26T05:28:04;15.43;;;7.13;;
20431;SDS011;10375;49.136;10.366;2023-06-26T05:30:32;10.20;;;7.22;;
20431;SDS011;10375;49.136;10.366;2023-06-26T05:33:02;19.77;;;11.15;;
20431;SDS011;10375;49.136;10.366;2023-06-26T05:35:30;19.15;;;10.43;;
20431;SDS011;10375;49.136;10.366;2023-06-26T05:37:58;12.55;;;7.53;;
20431;SDS011;10375;49.136;10.366;2023-06-26T05:40:25;17.77;;;7.20;;
20431;SDS011;10375;49.136;10.366;2023-06-26T05:42:53;11.05;;;6.97;;
20431;SDS011;10375;49.136;10.366;2023-06-26T05:45:20;14.52;;;7.10;;
20431;SDS011;10375;49.136;10.366;2023-06-26T05:47:47;12.52;;;7.15;;
20431;SDS011;10375;49.136;10.366;2023-06-26T05:50:17;16.65;;;6.95;;
20431;SDS011;10375;49.136;10.366;2023-06-26T05:52:46;32.30;;;7.70;;
20431;SDS011;10375;49.136;10.366;2023-06-26T05:55:13;14.20;;;7.53;;
20431;SDS011;10375;49.136;10.366;2023-06-26T05:57:41;20.23;;;7.00;;
20431;SDS011;10375;49.136;10.366;2023-06-26T06:00:08;7.22;;;6.15;;
20431;SDS011;10375;49.136;10.366;2023-06-26T06:02:39;9.13;;;6.80;;
20431;SDS011;10375;49.136;10.366;2023-06-26T06:05:08;11.85;;;6.60;;
20431;SDS011;10375;49.136;10.366;2023-06-26T06:07:36;14.68;;;7.65;;
20431;SDS011;10375;49.136;10.366;2023-06-26T06:10:03;18.30;;;7.30;;
20431;SDS011;10375;49.136;10.366;2023-06-26T06:12:31;15.50;;;7.35;;
20431;SDS011;10375;49.136;10.366;2023-06-26T06:14:58;16.15;;;7.38;;
20431;SDS011;10375;49.136;10.366;2023-06-26T06:17:25;9.85;;;7.22;;
20431;SDS011;10375;49.136;10.366;2023-06-26T06:19:52;10.35;;;7.82;;
20431;SDS011;10375;49.136;10.366;2023-06-26T06:22:19;47.05;;;9.68;;
20431;SDS011;10375;49.136;10.366;2023-06-26T06:24:48;16.08;;;6.60;;
20431;SDS011;10375;49.136;10.366;2023-06-26T06:27:17;8.98;;;7.22;;
20431;SDS011;10375;49.136;10.366;2023-06-26T06:29:44;12.00;;;6.13;;
20431;SDS011;10375;49.136;10.366;2023-06-26T06:32:11;13.02;;;6.93;;
20431;SDS011;10375;49.136;10.366;2023-06-26T06:34:39;13.93;;;6.32;;
20431;SDS011;10375;49.136;10.366;2023-06-26T06:37:06;10.15;;;6.50;;
20431;SDS011;10375;49.136;10.366;2023-06-26T06:39:33;8.55;;;6.25;;
20431;SDS011;10375;49.136;10.366;2023-06-26T06:42:00;12.38;;;6.18;;
20431;SDS011;10375;49.136;10.366;2023-06-26T06:44:27;9.75;;;5.90;;
20431;SDS011;10375;49.136;10.366;2023-06-26T06:46:57;8.82;;;6.05;;
20431;SDS011;10375;49.136;10.366;2023-06-26T06:49:24;10.32;;;6.43;;
20431;SDS011;10375;49.136;10.366;2023-06-26T06:51:51;15.50;;;5.90;;
20431;SDS011;10375;49.136;10.366;2023-06-26T06:54:18;7.05;;;5.65;;
20431;SDS011;10375;49.136;10.366;2023-06-26T06:56:46;11.65;;;5.55;;
20431;SDS011;10375;49.136;10.366;2023-06-26T06:59:13;9.43;;;6.30;;
20431;SDS011;10375;49.136;10.366;2023-06-26T07:01:40;10.05;;;6.25;;
20431;SDS011;10375;49.136;10.366;2023-06-26T07:04:07;6.60;;;5.90;;
20431;SDS011;10375;49.136;10.366;2023-06-26T07:06:34;9.35;;;6.60;;
20431;SDS011;10375;49.136;10.366;2023-06-26T07:09:01;7.45;;;6.22;;
20431;SDS011;10375;49.136;10.366;2023-06-26T07:11:29;11.43;;;6.32;;
20431;SDS011;10375;49.136;10.366;2023-06-26T07:13:56;9.18;;;5.80;;
20431;SDS011;10375;49.136;10.366;2023-06-26T07:16:23;10.40;;;6.68;;
20431;SDS011;10375;49.136;10.366;2023-06-26T07:18:50;8.05;;;5.82;;
20431;SDS011;10375;49.136;10.366;2023-06-26T07:21:18;8.98;;;5.80;;
20431;SDS011;10375;49.136;10.366;2023-06-26T07:23:45;10.52;;;6.70;;
20431;SDS011;10375;49.136;10.366;2023-06-26T07:26:13;7.68;;;6.05;;
20431;SDS011;10375;49.136;10.366;2023-06-26T07:28:42;12.68;;;5.82;;
20431;SDS011;10375;49.136;10.366;2023-06-26T07:31:09;5.78;;;5.13;;
20431;SDS011;10375;49.136;10.366;2023-06-26T07:33:36;6.72;;;5.45;;
20431;SDS011;10375;49.136;10.366;2023-06-26T07:36:03;10.88;;;6.13;;
20431;SDS011;10375;49.136;10.366;2023-06-26T07:38:31;6.32;;;5.70;;
20431;SDS011;10375;49.136;10.366;2023-06-26T07:40:59;13.05;;;5.07;;
20431;SDS011;10375;49.136;10.366;2023-06-26T07:43:26;7.03;;;6.00;;
20431;SDS011;10375;49.136;10.366;2023-06-26T07:45:53;9.75;;;5.70;;
20431;SDS011;10375;49.136;10.366;2023-06-26T07:48:20;7.53;;;5.53;;
20431;SDS011;10375;49.136;10.366;2023-06-26T07:50:47;8.68;;;5.20;;
20431;SDS011;10375;49.136;10.366;2023-06-26T07:53:14;6.35;;;5.65;;
20431;SDS011;10375;49.136;10.366;2023-06-26T07:55:42;8.80;;;5.60;;
20431;SDS011;10375;49.136;10.366;2023-06-26T07:58:09;6.50;;;5.25;;
20431;SDS011;10375;49.136;10.366;2023-06-26T08:00:37;12.23;;;5.75;;
20431;SDS011;10375;49.136;10.366;2023-06-26T08:03:04;6.13;;;5.53;;
20431;SDS011;10375;49.136;10.366;2023-06-26T08:05:37;14.05;;;6.53;;
20431;SDS011;10375;49.136;10.366;2023-06-26T08:08:05;24.60;;;6.35;;
20431;SDS011;10375;49.136;10.366;2023-06-26T08:10:33;16.75;;;6.07;;
20431;SDS011;10375;49.136;10.366;2023-06-26T08:13:00;7.95;;;6.18;;
20431;SDS011;10375;49.136;10.366;2023-06-26T08:15:27;8.43;;;6.07;;
20431;SDS011;10375;49.136;10.366;2023-06-26T08:17:54;12.88;;;5.68;;
20431;SDS011;10375;49.136;10.366;2023-06-26T08:20:22;8.02;;;5.72;;
20431;SDS011;10375;49.136;10.366;2023-06-26T08:22:49;8.48;;;5.75;;
20431;SDS011;10375;49.136;10.366;2023-06-26T08:25:19;8.50;;;5.88;;
20431;SDS011;10375;49.136;10.366;2023-06-26T08:27:46;6.55;;;4.90;;
20431;SDS011;10375;49.136;10.366;2023-06-26T08:30:15;7.53;;;6.10;;
20431;SDS011;10375;49.136;10.366;2023-06-26T08:32:42;8.48;;;5.47;;
20431;SDS011;10375;49.136;10.366;2023-06-26T08:35:10;6.82;;;4.93;;
20431;SDS011;10375;49.136;10.366;2023-06-26T08:37:37;6.35;;;5.60;;
20431;SDS011;10375;49.136;10.366;2023-06-26T08:40:04;5.72;;;5.07;;
20431;SDS011;10375;49.136;10.366;2023-06-26T08:42:32;9.90;;;5.55;;
20431;SDS011;10375;49.136;10.366;2023-06-26T08:44:59;11.82;;;5.60;;
20431;SDS011;10375;49.136;10.366;2023-06-26T08:47:28;16.65;;;5.72;;
20431;SDS011;10375;49.136;10.366;2023-06-26T08:50:08;8.13;;;5.03;;
20431;SDS011;10375;49.136;10.366;2023-06-26T08:52:40;11.30;;;5.53;;
20431;SDS011;10375;49.136;10.366;2023-06-26T08:55:12;9.13;;;6.00;;
20431;SDS011;10375;49.136;10.366;2023-06-26T08:57:41;5.93;;;5.18;;
20431;SDS011;10375;49.136;10.366;2023-06-26T09:00:10;6.07;;;5.18;;
20431;SDS011;10375;49.136;10.366;2023-06-26T09:02:41;12.68;;;5.90;;
20431;SDS011;10375;49.136;10.366;2023-06-26T09:05:11;16.98;;;5.47;;
20431;SDS011;10375;49.136;10.366;2023-06-26T09:07:38;7.57;;;5.43;;
20431;SDS011;10375;49.136;10.366;2023-06-26T09:10:05;10.60;;;5.75;;
20431;SDS011;10375;49.136;10.366;2023-06-26T09:12:33;7.80;;;5.10;;
20431;SDS011;10375;49.136;10.366;2023-06-26T09:15:01;5.28;;;4.63;;
20431;SDS011;10375;49.136;10.366;2023-06-26T09:17:30;16.30;;;4.97;;
20431;SDS011;10375;49.136;10.366;2023-06-26T09:19:59;7.15;;;4.80;;
20431;SDS011;10375;49.136;10.366;2023-06-26T09:22:27;6.95;;;5.38;;
20431;SDS011;10375;49.136;10.366;2023-06-26T09:24:54;5.97;;;4.97;;
20431;SDS011;10375;49.136;10.366;2023-06-26T09:27:21;9.23;;;5.25;;
20431;SDS011;10375;49.136;10.366;2023-06-26T09:29:48;9.43;;;5.25;;
20431;SDS011;10375;49.136;10.366;2023-06-26T09:32:16;7.70;;;4.88;;
20431;SDS011;10375;49.136;10.366;2023-06-26T09:34:43;4.85;;;4.35;;
20431;SDS011;10375;49.136;10.366;2023-06-26T09:37:11;9.15;;;4.53;;
20431;SDS011;10375;49.136;10.366;2023-06-26T09:39:40;16.30;;;5.18;;
20431;SDS011;10375;49.136;10.366;2023-06-26T09:42:07;7.15;;;4.75;;
20431;SDS011;10375;49.136;10.366;2023-06-26T09:44:34;12.20;;;4.78;;
20431;SDS011;10375;49.136;10.366;2023-06-26T09:47:02;6.18;;;4.70;;
20431;SDS011;10375;49.136;10.366;2023-06-26T09:49:32;8.63;;;4.32;;
20431;SDS011;10375;49.136;10.366;2023-06-26T09:51:59;4.93;;;4.43;;
20431;SDS011;10375;49.136;10.366;2023-06-26T09:54:28;5.68;;;4.68;;
20431;SDS011;10375;49.136;10.366;2023-06-26T09:57:06;4.32;;;3.92;;
20431;SDS011;10375;49.136;10.366;2023-06-26T09:59:38;5.82;;;4.25;;
20431;SDS011;10375;49.136;10.366;2023-06-26T10:02:07;12.88;;;4.28;;
20431;SDS011;10375;49.136;10.366;2023-06-26T10:04:35;11.93;;;4.20;;
20431;SDS011;10375;49.136;10.366;2023-06-26T10:07:04;5.35;;;4.05;;
20431;SDS011;10375;49.136;10.366;2023-06-26T10:09:33;5.65;;;4.03;;
20431;SDS011;10375;49.136;10.366;2023-06-26T10:12:11;6.07;;;4.28;;
20431;SDS011;10375;49.136;10.366;2023-06-26T10:15:07;5.10;;;3.70;;
20431;SDS011;10375;49.136;10.366;2023-06-26T10:17:39;4.75;;;3.80;;
20431;SDS011;10375;49.136;10.366;2023-06-26T10:20:09;5.65;;;4.10;;
20431;SDS011;10375;49.136;10.366;2023-06-26T10:22:41;5.07;;;3.95;;
20431;SDS011;10375;49.136;10.366;2023-06-26T10:25:12;5.47;;;3.75;;
20431;SDS011;10375;49.136;10.366;2023-06-26T10:27:51;15.77;;;4.18;;
20431;SDS011;10375;49.136;10.366;2023-06-26T10:30:23;7.20;;;4.05;;
20431;SDS011;10375;49.136;10.366;2023-06-26T10:32:54;7.10;;;4.18;;
20431;SDS011;10375;49.136;10.366;2023-06-26T10:35:23;3.97;;;3.58;;
20431;SDS011;10375;49.136;10.366;2023-06-26T10:37:51;9.55;;;3.95;;
20431;SDS011;10375;49.136;10.366;2023-06-26T10:40:22;7.68;;;3.58;;
20431;SDS011;10375;49.136;10.366;2023-06-26T10:43:04;14.38;;;3.53;;
20431;SDS011;10375;49.136;10.366;2023-06-26T10:45:34;14.93;;;4.03;;
20431;SDS011;10375;49.136;10.366;2023-06-26T10:48:04;4.70;;;3.42;;
20431;SDS011;10375;49.136;10.366;2023-06-26T10:50:31;5.55;;;4.10;;
20431;SDS011;10375;49.136;10.366;2023-06-26T10:56:02;7.47;;;3.60;;
20431;SDS011;10375;49.136;10.366;2023-06-26T11:01:23;4.05;;;3.33;;
20431;SDS011;10375;49.136;10.366;2023-06-26T11:04:02;6.55;;;3.75;;
20431;SDS011;10375;49.136;10.366;2023-06-26T11:06:35;4.13;;;3.42;;
20431;SDS011;10375;49.136;10.366;2023-06-26T11:14:34;6.70;;;3.65;;
20431;SDS011;10375;49.136;10.366;2023-06-26T11:17:02;5.75;;;3.63;;
20431;SDS011;10375;49.136;10.366;2023-06-26T11:19:30;8.77;;;4.47;;
20431;SDS011;10375;49.136;10.366;2023-06-26T11:22:02;8.07;;;3.78;;
20431;SDS011;10375;49.136;10.366;2023-06-26T11:24:30;8.15;;;4.65;;
20431;SDS011;10375;49.136;10.366;2023-06-26T11:26:59;4.50;;;4.00;;
20431;SDS011;10375;49.136;10.366;2023-06-26T11:29:29;5.47;;;3.92;;
20431;SDS011;10375;49.136;10.366;2023-06-26T11:32:00;6.63;;;4.20;;
20431;SDS011;10375;49.136;10.366;2023-06-26T11:34:31;8.18;;;4.13;;
20431;SDS011;10375;49.136;10.366;2023-06-26T11:36:58;5.85;;;4.57;;
20431;SDS011;10375;49.136;10.366;2023-06-26T11:39:27;11.52;;;4.15;;
20431;SDS011;10375;49.136;10.366;2023-06-26T11:41:55;4.82;;;4.32;;
20431;SDS011;10375;49.136;10.366;2023-06-26T11:44:23;7.03;;;4.53;;
20431;SDS011;10375;49.136;10.366;2023-06-26T11:46:53;6.38;;;4.30;;
20431;SDS011;10375;49.136;10.366;2023-06-26T11:49:22;7.55;;;3.95;;
20431;SDS011;10375;49.136;10.366;2023-06-26T11:51:52;11.90;;;3.97;;
20431;SDS011;10375;49.136;10.366;2023-06-26T11:54:24;7.45;;;3.83;;
20431;SDS011;10375;49.136;10.366;2023-06-26T11:56:57;4.90;;;4.10;;
20431;SDS011;10375;49.136;10.366;2023-06-26T11:59:36;6.38;;;4.43;;
20431;SDS011;10375;49.136;10.366;2023-06-26T12:02:10;190.57;;;13.68;;
20431;SDS011;10375;49.136;10.366;2023-06-26T12:04:41;7.10;;;4.15;;
20431;SDS011;10375;49.136;10.366;2023-06-26T12:07:10;5.65;;;4.05;;
20431;SDS011;10375;49.136;10.366;2023-06-26T12:09:42;6.78;;;4.13;;
20431;SDS011;10375;49.136;10.366;2023-06-26T12:12:12;7.55;;;4.50;;
20431;SDS011;10375;49.136;10.366;2023-06-26T12:14:42;5.15;;;4.03;;
20431;SDS011;10375;49.136;10.366;2023-06-26T12:17:11;5.47;;;4.45;;
20431;SDS011;10375;49.136;10.366;2023-06-26T12:19:43;5.80;;;4.55;;
20431;SDS011;10375;49.136;10.366;2023-06-26T12:22:11;7.15;;;4.20;;
20431;SDS011;10375;49.136;10.366;2023-06-26T12:24:38;5.95;;;4.05;;
20431;SDS011;10375;49.136;10.366;2023-06-26T12:27:10;6.82;;;4.53;;
20431;SDS011;10375;49.136;10.366;2023-06-26T12:29:45;6.60;;;4.25;;
20431;SDS011;10375;49.136;10.366;2023-06-26T12:32:17;11.85;;;4.90;;
20431;SDS011;10375;49.136;10.366;2023-06-26T12:34:47;6.72;;;4.28;;
20431;SDS011;10375;49.136;10.366;2023-06-26T12:37:19;6.55;;;4.43;;
20431;SDS011;10375;49.136;10.366;2023-06-26T12:42:24;5.35;;;4.80;;
20431;SDS011;10375;49.136;10.366;2023-06-26T12:44:53;6.10;;;4.40;;
20431;SDS011;10375;49.136;10.366;2023-06-26T12:47:24;6.38;;;4.75;;
20431;SDS011;10375;49.136;10.366;2023-06-26T12:49:53;9.80;;;4.50;;
20431;SDS011;10375;49.136;10.366;2023-06-26T12:52:21;5.05;;;4.30;;
20431;SDS011;10375;49.136;10.366;2023-06-26T12:54:52;5.15;;;4.20;;
20431;SDS011;10375;49.136;10.366;2023-06-26T12:57:21;7.53;;;4.13;;
20431;SDS011;10375;49.136;10.366;2023-06-26T12:59:48;5.68;;;4.43;;
20431;SDS011;10375;49.136;10.366;2023-06-26T13:02:15;4.95;;;4.25;;
20431;SDS011;10375;49.136;10.366;2023-06-26T13:04:43;12.23;;;5.10;;
20431;SDS011;10375;49.136;10.366;2023-06-26T13:07:11;10.23;;;4.40;;
20431;SDS011;10375;49.136;10.366;2023-06-26T13:09:39;10.52;;;4.40;;
20431;SDS011;10375;49.136;10.366;2023-06-26T13:12:07;6.68;;;4.97;;
20431;SDS011;10375;49.136;10.366;2023-06-26T13:14:35;25.88;;;5.95;;
20431;SDS011;10375;49.136;10.366;2023-06-26T13:17:02;9.77;;;5.35;;
20431;SDS011;10375;49.136;10.366;2023-06-26T13:19:35;12.48;;;4.78;;
20431;SDS011;10375;49.136;10.366;2023-06-26T13:22:02;5.30;;;4.80;;
20431;SDS011;10375;49.136;10.366;2023-06-26T13:24:29;7.63;;;4.85;;
20431;SDS011;10375;49.136;10.366;2023-06-26T13:26:56;5.43;;;4.88;;
20431;SDS011;10375;49.136;10.366;2023-06-26T13:29:23;6.45;;;5.55;;
20431;SDS011;10375;49.136;10.366;2023-06-26T13:31:50;5.25;;;4.75;;
20431;SDS011;10375;49.136;10.366;2023-06-26T13:34:21;14.93;;;5.30;;
20431;SDS011;10375;49.136;10.366;2023-06-26T13:36:50;7.45;;;4.68;;
20431;SDS011;10375;49.136;10.366;2023-06-26T13:39:17;9.93;;;5.72;;
20431;SDS011;10375;49.136;10.366;2023-06-26T13:41:45;5.97;;;4.88;;
20431;SDS011;10375;49.136;10.366;2023-06-26T13:44:12;12.18;;;5.57;;
20431;SDS011;10375;49.136;10.366;2023-06-26T13:46:57;8.18;;;5.00;;
20431;SDS011;10375;49.136;10.366;2023-06-26T13:49:24;7.68;;;5.50;;
20431;SDS011;10375;49.136;10.366;2023-06-26T13:51:51;8.82;;;5.85;;
20431;SDS011;10375;49.136;10.366;2023-06-26T13:54:18;10.88;;;5.38;;
20431;SDS011;10375;49.136;10.366;2023-06-26T13:56:45;5.78;;;5.28;;
20431;SDS011;10375;49.136;10.366;2023-06-26T13:59:12;8.90;;;5.53;;
20431;SDS011;10375;49.136;10.366;2023-06-26T14:01:39;5.80;;;5.20;;
20431;SDS011;10375;49.136;10.366;2023-06-26T14:04:09;7.03;;;4.97;;
20431;SDS011;10375;49.136;10.366;2023-06-26T14:06:36;8.25;;;5.20;;
20431;SDS011;10375;49.136;10.366;2023-06-26T14:09:03;9.82;;;5.65;;
20431;SDS011;10375;49.136;10.366;2023-06-26T14:11:30;5.65;;;5.13;;
20431;SDS011;10375;49.136;10.366;2023-06-26T14:13:59;6.72;;;5.03;;
20431;SDS011;10375;49.136;10.366;2023-06-26T14:16:26;5.97;;;5.05;;
20431;SDS011;10375;49.136;10.366;2023-06-26T14:18:55;7.32;;;5.82;;
20431;SDS011;10375;49.136;10.366;2023-06-26T14:21:22;10.68;;;6.03;;
20431;SDS011;10375;49.136;10.366;2023-06-26T14:23:50;5.95;;;5.35;;
20431;SDS011;10375;49.136;10.366;2023-06-26T14:26:17;6.97;;;5.63;;
20431;SDS011;10375;49.136;10.366;2023-06-26T14:28:44;6.85;;;5.60;;
20431;SDS011;10375;49.136;10.366;2023-06-26T14:31:11;8.57;;;5.55;;
20431;SDS011;10375;49.136;10.366;2023-06-26T14:33:39;16.52;;;6.43;;
20431;SDS011;10375;49.136;10.366;2023-06-26T14:36:06;7.45;;;5.75;;
20431;SDS011;10375;49.136;10.366;2023-06-26T14:38:33;11.80;;;5.57;;
20431;SDS011;10375;49.136;10.366;2023-06-26T14:41:00;12.23;;;5.68;;
20431;SDS011;10375;49.136;10.366;2023-06-26T14:43:28;7.28;;;6.28;;
20431;SDS011;10375;49.136;10.366;2023-06-26T14:45:55;16.77;;;6.20;;
20431;SDS011;10375;49.136;10.366;2023-06-26T14:48:23;15.10;;;5.88;;
20431;SDS011;10375;49.136;10.366;2023-06-26T14:50:50;10.05;;;6.20;;
20431;SDS011;10375;49.136;10.366;2023-06-26T14:53:17;6.03;;;5.43;;
20431;SDS011;10375;49.136;10.366;2023-06-26T14:55:44;9.65;;;5.60;;